Weather History for Adak, AK

Change the Weather History Date:

Sunday, March 30, 2014

  Actual Average Record
Temperature  
Mean Temperature 40 °F -  
Max Temperature 44 °F 39 °F 47 °F (1967)
Min Temperature 35 °F 30 °F 19 °F (2012)
Degree Days  
Heating Degree Days 26    
Moisture  
Dew Point 33 °F    
Average Humidity 77    
Maximum Humidity 81    
Minimum Humidity 61    
Precipitation  
Precipitation 0.08 in - - ()
Sea Level Pressure  
Sea Level Pressure 29.07 in    
Wind  
Wind Speed 31 mph (SSE)    
Max Wind Speed 51 mph    
Max Gust Speed 61 mph    
Visibility 5 miles    
Events      
Averages and records for this station are not official NWS values.
T = Trace of Precipitation, MM = Missing Value Source: NWS Daily Summary

Daily Weather History Graph

Daily Weather History Graph

Search for Another Location

Airport:

Trip Planner

Search our weather history database for the weather conditions in past years. The results will help you decide how hot, cold, wet, or windy it might be!

Date:

Astronomy

Mar. 30, 2014 Rise Set
Actual Time 8:25 AM HADT 9:17 PM HADT
Civil Twilight 7:51 AM HADT 9:51 PM HADT
Nautical Twilight 7:10 AM HADT 10:32 PM HADT
Astronomical Twilight 6:26 AM HADT 11:16 PM HADT
Moon 8:18 AM HADT (3/30) 9:52 PM HADT (3/30)
Length of Visible Light 14h 00m
Length of Day
12h 52m
New Moon, 0% of the Moon is Illuminated
Mar 30
New Moon
Apr 6
First Quarter
Apr 14
Full
Apr 21
Last Quarter
Apr 28
New

Hourly Weather History & Observations

Time (HADT) Temp. Windchill Dew Point Humidity Pressure Visibility Wind Dir Wind Speed Gust Speed Precip Events Conditions
12:16 AM 37.4 °F 26.4 °F 28.4 °F 70% 29.72 in 7.0 mi ESE 23.0 mph 33.4 mph N/A   Unknown
12:36 AM 37.4 °F 25.2 °F 30.2 °F 75% 29.70 in 4.0 mi ESE 28.8 mph 32.2 mph 0.01 in   Unknown
12:56 AM 35.6 °F 24.2 °F 30.2 °F 81% 29.68 in 5.0 mi ESE 21.9 mph 33.4 mph 0.02 in   Unknown
1:16 AM 35.6 °F 22.7 °F 30.2 °F 81% 29.67 in 5.0 mi ESE 28.8 mph 36.8 mph N/A   Unknown
1:56 AM 35.6 °F 21.7 °F 30.2 °F 81% 29.62 in 4.0 mi ESE 34.5 mph 41.4 mph 0.01 in   Unknown
2:16 AM 37.4 °F 24.0 °F 30.2 °F 75% 29.59 in 4.0 mi ESE 35.7 mph 46.0 mph 0.01 in   Unknown
2:36 AM 37.4 °F 22.8 °F 30.2 °F 75% 29.57 in 3.0 mi ESE 43.7 mph 54.1 mph 0.02 in   Unknown
3:16 AM 35.6 °F 21.1 °F 30.2 °F 81% 29.51 in 2.0 mi ESE 38.0 mph 51.8 mph N/A   Unknown
3:56 AM 35.6 °F 20.8 °F 30.2 °F 81% 29.45 in 2.5 mi ESE 40.3 mph 54.1 mph N/A   Unknown
4:36 AM 35.6 °F 19.4 °F 30.2 °F 81% 29.41 in 1.2 mi ESE 50.6 mph 61.0 mph N/A   Unknown
4:56 AM 35.6 °F 20.8 °F 30.2 °F 81% 29.37 in 1.5 mi ESE 40.3 mph 58.7 mph 0.13 in   Unknown
5:16 AM 35.6 °F 20.6 °F 30.2 °F 81% 29.36 in 1.2 mi ESE 41.4 mph 51.8 mph 0.03 in   Unknown
5:36 AM 37.4 °F 24.0 °F 30.2 °F 75% 29.33 in 1.2 mi ESE 35.7 mph 46.0 mph 0.05 in   Unknown
5:56 AM 37.4 °F 24.2 °F 30.2 °F 75% 29.32 in 2.0 mi ESE 34.5 mph 47.2 mph 0.06 in   Unknown
6:16 AM 37.4 °F 25.0 °F 30.2 °F 75% 29.28 in 2.5 mi ESE 29.9 mph 41.4 mph 0.03 in   Unknown
6:56 AM 37.4 °F 23.8 °F 30.2 °F 75% 29.23 in 3.0 mi ESE 36.8 mph 50.6 mph 0.12 in   Unknown
8:16 AM 39.2 °F 25.5 °F 33.8 °F 81% 29.11 in 2.0 mi SE 42.6 mph 52.9 mph N/A   Unknown
9:16 AM 39.2 °F 25.4 °F 33.8 °F 81% 29.08 in 1.2 mi SE 43.7 mph 57.5 mph N/A   Unknown
9:36 AM 41.0 °F 27.5 °F 33.8 °F 76% 29.06 in 1.0 mi SE 47.2 mph 58.7 mph N/A   Unknown
9:56 AM 41.0 °F 28.2 °F 35.6 °F 81% 29.04 in 1.2 mi SE 41.4 mph 51.8 mph N/A   Unknown
10:16 AM 41.0 °F 28.2 °F 35.6 °F 81% 29.03 in 1.5 mi SE 41.4 mph 52.9 mph N/A   Unknown
10:36 AM 41.0 °F 27.9 °F 35.6 °F 81% 29.01 in 2.5 mi SE 43.7 mph 52.9 mph N/A   Unknown
11:16 AM 42.8 °F 31.0 °F 35.6 °F 76% 28.97 in 2.5 mi SE 39.1 mph 54.1 mph N/A   Unknown
11:36 AM 42.8 °F 30.7 °F 37.4 °F 81% 28.96 in 1.8 mi SE 41.4 mph 52.9 mph N/A   Unknown
11:56 AM 42.8 °F 31.1 °F 37.4 °F 81% 28.94 in 2.5 mi SE 38.0 mph 51.8 mph N/A   Unknown
12:16 PM 42.8 °F 30.8 °F 37.4 °F 81% 28.93 in 1.2 mi SE 40.3 mph 52.9 mph N/A   Unknown
12:36 PM 42.8 °F 31.1 °F 37.4 °F 81% 28.92 in 1.0 mi SE 38.0 mph 49.5 mph N/A   Overcast
12:56 PM 42.8 °F 32.1 °F 37.4 °F 81% 28.92 in 1.5 mi SE 31.1 mph 42.6 mph 0.09 in   Unknown
1:16 PM 42.8 °F 32.3 °F 37.4 °F 81% 28.92 in 2.0 mi SE 29.9 mph 44.9 mph N/A   Overcast
1:36 PM 44.6 °F 33.9 °F 37.4 °F 76% 28.91 in 2.5 mi SE 35.7 mph 43.7 mph 0.11 in   Unknown
1:56 PM 44.6 °F 33.9 °F 37.4 °F 76% 28.89 in 2.5 mi ESE 35.7 mph 41.4 mph 0.13 in   Unknown
2:16 PM 44.6 °F 34.9 °F 37.4 °F 76% 28.88 in 3.0 mi SE 28.8 mph 39.1 mph 0.03 in   Unknown
2:36 PM 44.6 °F 35.3 °F 37.4 °F 76% 28.87 in 3.0 mi ESE 26.5 mph 40.3 mph 0.07 in   Unknown
2:56 PM 44.6 °F 35.5 °F 39.2 °F 81% 28.86 in 3.0 mi SE 25.3 mph 33.4 mph 0.10 in   Unknown
3:16 PM 44.6 °F 36.1 °F 39.2 °F 81% 28.85 in 4.0 mi SE 21.9 mph 36.8 mph 0.01 in   Unknown
3:36 PM 44.6 °F 36.1 °F 39.2 °F 81% 28.84 in 5.0 mi SE 21.9 mph 31.1 mph 0.02 in   Unknown
3:56 PM 44.6 °F 35.9 °F 39.2 °F 81% 28.83 in 3.0 mi SE 23.0 mph 28.8 mph 0.03 in   Unknown
4:16 PM 44.6 °F 36.6 °F 39.2 °F 81% 28.82 in 4.0 mi SSE 19.6 mph 32.2 mph 0.01 in   Unknown
4:36 PM 44.6 °F 36.6 °F 39.2 °F 81% 28.81 in 4.0 mi SSE 19.6 mph 24.2 mph 0.01 in   Unknown
4:56 PM 44.6 °F 36.6 °F 37.4 °F 76% 28.81 in 5.0 mi South 19.6 mph 26.5 mph 0.01 in   Unknown
5:16 PM 44.6 °F 37.4 °F 39.2 °F 81% 28.80 in 6.0 mi South 16.1 mph - 0.02 in   Unknown
5:36 PM 42.8 °F 34.8 °F 37.4 °F 81% 28.80 in 10.0 mi SW 17.3 mph - 0.03 in   Unknown
5:56 PM 42.8 °F 35.8 °F 35.6 °F 76% 28.81 in 10.0 mi SW 13.8 mph - 0.03 in   Unknown
6:16 PM 41.0 °F 31.9 °F 35.6 °F 81% 28.82 in 5.0 mi SW 19.6 mph - N/A   Unknown
6:36 PM 39.2 °F 28.5 °F 33.8 °F 81% 28.82 in 8.0 mi SW 24.2 mph - 0.01 in   Unknown
6:56 PM 39.2 °F 28.0 °F 33.8 °F 81% 28.84 in 10.0 mi SW 26.5 mph 34.5 mph 0.02 in   Unknown
7:16 PM 39.2 °F 28.0 °F 33.8 °F 81% 28.84 in 5.0 mi SW 26.5 mph - N/A   Unknown
7:36 PM 39.2 °F 27.8 °F 33.8 °F 81% 28.86 in 10.0 mi WSW 27.6 mph 33.4 mph N/A   Unknown
7:56 PM 39.2 °F 28.5 °F 32.0 °F 75% 28.87 in 10.0 mi SW 24.2 mph 29.9 mph N/A   Unknown
8:16 PM 39.2 °F 28.7 °F 32.0 °F 75% 28.88 in 10.0 mi SSW 23.0 mph 29.9 mph N/A   Unknown
8:36 PM 37.4 °F 27.5 °F 30.2 °F 75% 28.90 in 10.0 mi SSW 18.4 mph 26.5 mph N/A   Unknown
8:56 PM 39.2 °F 29.0 °F 30.2 °F 70% 28.91 in 10.0 mi SSW 21.9 mph 29.9 mph N/A   Unknown
9:16 PM 37.4 °F 26.6 °F 30.2 °F 75% 28.93 in 10.0 mi SSW 21.9 mph - N/A   Unknown
9:36 PM 37.4 °F 26.9 °F 28.4 °F 70% 28.94 in 10.0 mi SSW 20.7 mph 32.2 mph N/A   Unknown
9:56 PM 37.4 °F 26.1 °F 28.4 °F 70% 28.95 in 10.0 mi SSW 24.2 mph 29.9 mph N/A   Unknown
10:16 PM 37.4 °F 26.1 °F 28.4 °F 70% 28.97 in 10.0 mi South 24.2 mph 27.6 mph N/A   Unknown
10:36 PM 37.4 °F 26.4 °F 28.4 °F 70% 28.98 in 10.0 mi SSW 23.0 mph 32.2 mph N/A   Unknown
10:56 PM 37.4 °F 25.4 °F 28.4 °F 70% 28.99 in 9.0 mi South 27.6 mph 31.1 mph N/A   Unknown
11:16 PM 35.6 °F 25.2 °F 28.4 °F 75% 29.00 in 10.0 mi South 18.4 mph - N/A   Unknown
11:36 PM 37.4 °F 25.9 °F 28.4 °F 70% 29.00 in 10.0 mi South 25.3 mph - N/A   Unknown
11:56 PM 35.6 °F 25.2 °F 28.4 °F 75% 29.01 in 8.0 mi South 18.4 mph 27.6 mph N/A   Unknown